<?xml version="1.0" encoding="UTF-8" standalone="no" ?>
<gpx xmlns="http://www.topografix.com/GPX/1/1" xmlns:xsi="http://www.w3.org/2001/XMLSchema-instance" xsi:schemaLocation="http://www.topografix.com/GPX/1/1 http://www.topografix.com/GPX/1/1/gpx.xsd" version="1.1" creator="VisuGPX - https://www.visugpx.com">
  <metadata>
    <name>Amiens illuminée (Chemins en Somme)</name>
    <desc><![CDATA[Walkmeter Marche 8 déc. 2012 15:09:52]]></desc>
  </metadata>
  <trk>
    <name><![CDATA[Chemins en Somme]]></name>
    <trkseg>
      <trkpt lat="49.87689" lon="2.29152">
        <ele>43.5</ele>
        <time>2012-12-08T14:09:52Z</time>
      </trkpt>
      <trkpt lat="49.87692" lon="2.29145">
        <ele>46.7</ele>
        <time>2012-12-08T14:09:58Z</time>
      </trkpt>
      <trkpt lat="49.87702" lon="2.2915">
        <ele>44.1</ele>
        <time>2012-12-08T14:10:14Z</time>
      </trkpt>
      <trkpt lat="49.87715" lon="2.29141">
        <ele>44.5</ele>
        <time>2012-12-08T14:10:34Z</time>
      </trkpt>
      <trkpt lat="49.87728" lon="2.29134">
        <ele>41.7</ele>
        <time>2012-12-08T14:10:43Z</time>
      </trkpt>
      <trkpt lat="49.87741" lon="2.29127">
        <ele>43.3</ele>
        <time>2012-12-08T14:10:53Z</time>
      </trkpt>
      <trkpt lat="49.87754" lon="2.29118">
        <ele>48.7</ele>
        <time>2012-12-08T14:11:06Z</time>
      </trkpt>
      <trkpt lat="49.87768" lon="2.29117">
        <ele>57.1</ele>
        <time>2012-12-08T14:11:19Z</time>
      </trkpt>
      <trkpt lat="49.87783" lon="2.29112">
        <ele>64.7</ele>
        <time>2012-12-08T14:11:33Z</time>
      </trkpt>
      <trkpt lat="49.87796" lon="2.29117">
        <ele>67.9</ele>
        <time>2012-12-08T14:11:44Z</time>
      </trkpt>
      <trkpt lat="49.8781" lon="2.29125">
        <ele>69.8</ele>
        <time>2012-12-08T14:11:55Z</time>
      </trkpt>
      <trkpt lat="49.87825" lon="2.29132">
        <ele>67.9</ele>
        <time>2012-12-08T14:12:09Z</time>
      </trkpt>
      <trkpt lat="49.8784" lon="2.29141">
        <ele>71</ele>
        <time>2012-12-08T14:12:20Z</time>
      </trkpt>
      <trkpt lat="49.87856" lon="2.29156">
        <ele>61.8</ele>
        <time>2012-12-08T14:12:37Z</time>
      </trkpt>
      <trkpt lat="49.87876" lon="2.29167">
        <ele>52</ele>
        <time>2012-12-08T14:12:46Z</time>
      </trkpt>
      <trkpt lat="49.87876" lon="2.29167">
        <ele>52</ele>
        <time>2012-12-08T14:13:25Z</time>
      </trkpt>
      <trkpt lat="49.87887" lon="2.29171">
        <ele>47.3</ele>
        <time>2012-12-08T14:13:39Z</time>
      </trkpt>
      <trkpt lat="49.87899" lon="2.29186">
        <ele>45.7</ele>
        <time>2012-12-08T14:13:41Z</time>
      </trkpt>
      <trkpt lat="49.87909" lon="2.29202">
        <ele>44.1</ele>
        <time>2012-12-08T14:13:47Z</time>
      </trkpt>
      <trkpt lat="49.87912" lon="2.2922">
        <ele>46.3</ele>
        <time>2012-12-08T14:13:55Z</time>
      </trkpt>
      <trkpt lat="49.87925" lon="2.29225">
        <ele>51</ele>
        <time>2012-12-08T14:14:19Z</time>
      </trkpt>
      <trkpt lat="49.8794" lon="2.29222">
        <ele>53.3</ele>
        <time>2012-12-08T14:14:25Z</time>
      </trkpt>
      <trkpt lat="49.87957" lon="2.29216">
        <ele>56.7</ele>
        <time>2012-12-08T14:14:34Z</time>
      </trkpt>
      <trkpt lat="49.87974" lon="2.29215">
        <ele>63.2</ele>
        <time>2012-12-08T14:14:51Z</time>
      </trkpt>
      <trkpt lat="49.87988" lon="2.29217">
        <ele>67.4</ele>
        <time>2012-12-08T14:15:01Z</time>
      </trkpt>
      <trkpt lat="49.88004" lon="2.29225">
        <ele>71.5</ele>
        <time>2012-12-08T14:15:12Z</time>
      </trkpt>
      <trkpt lat="49.88016" lon="2.29237">
        <ele>76.9</ele>
        <time>2012-12-08T14:15:27Z</time>
      </trkpt>
      <trkpt lat="49.8803" lon="2.29249">
        <ele>79.2</ele>
        <time>2012-12-08T14:15:43Z</time>
      </trkpt>
      <trkpt lat="49.88036" lon="2.29256">
        <ele>79.7</ele>
        <time>2012-12-08T14:15:46Z</time>
      </trkpt>
      <trkpt lat="49.8805" lon="2.2926">
        <ele>82.6</ele>
        <time>2012-12-08T14:16:01Z</time>
      </trkpt>
      <trkpt lat="49.88065" lon="2.2927">
        <ele>80.8</ele>
        <time>2012-12-08T14:16:16Z</time>
      </trkpt>
      <trkpt lat="49.8808" lon="2.29284">
        <ele>75.7</ele>
        <time>2012-12-08T14:16:24Z</time>
      </trkpt>
      <trkpt lat="49.88081" lon="2.29298">
        <ele>70.7</ele>
        <time>2012-12-08T14:16:31Z</time>
      </trkpt>
      <trkpt lat="49.88093" lon="2.29305">
        <ele>65.8</ele>
        <time>2012-12-08T14:16:38Z</time>
      </trkpt>
      <trkpt lat="49.88111" lon="2.293">
        <ele>60.1</ele>
        <time>2012-12-08T14:16:56Z</time>
      </trkpt>
      <trkpt lat="49.88125" lon="2.29312">
        <ele>66.3</ele>
        <time>2012-12-08T14:17:06Z</time>
      </trkpt>
      <trkpt lat="49.88141" lon="2.29316">
        <ele>68.7</ele>
        <time>2012-12-08T14:17:23Z</time>
      </trkpt>
      <trkpt lat="49.88154" lon="2.29322">
        <ele>63</ele>
        <time>2012-12-08T14:17:36Z</time>
      </trkpt>
      <trkpt lat="49.88171" lon="2.29334">
        <ele>58.5</ele>
        <time>2012-12-08T14:17:46Z</time>
      </trkpt>
      <trkpt lat="49.88186" lon="2.29344">
        <ele>52.6</ele>
        <time>2012-12-08T14:17:53Z</time>
      </trkpt>
      <trkpt lat="49.88199" lon="2.29351">
        <ele>55.6</ele>
        <time>2012-12-08T14:18:02Z</time>
      </trkpt>
      <trkpt lat="49.88232" lon="2.29365">
        <ele>61.3</ele>
        <time>2012-12-08T14:18:21Z</time>
      </trkpt>
      <trkpt lat="49.88232" lon="2.29365">
        <ele>61.3</ele>
        <time>2012-12-08T14:19:09Z</time>
      </trkpt>
      <trkpt lat="49.88251" lon="2.29376">
        <ele>63.7</ele>
        <time>2012-12-08T14:19:19Z</time>
      </trkpt>
      <trkpt lat="49.88264" lon="2.29389">
        <ele>64</ele>
        <time>2012-12-08T14:19:34Z</time>
      </trkpt>
      <trkpt lat="49.88275" lon="2.294">
        <ele>64.4</ele>
        <time>2012-12-08T14:19:42Z</time>
      </trkpt>
      <trkpt lat="49.8829" lon="2.29407">
        <ele>64.7</ele>
        <time>2012-12-08T14:19:48Z</time>
      </trkpt>
      <trkpt lat="49.88335" lon="2.29426">
        <ele>65.3</ele>
        <time>2012-12-08T14:19:59Z</time>
      </trkpt>
      <trkpt lat="49.88322" lon="2.2942">
        <ele>66.2</ele>
        <time>2012-12-08T14:20:18Z</time>
      </trkpt>
      <trkpt lat="49.88316" lon="2.2942">
        <ele>77.2</ele>
        <time>2012-12-08T14:20:29Z</time>
      </trkpt>
      <trkpt lat="49.88323" lon="2.29432">
        <ele>65.1</ele>
        <time>2012-12-08T14:20:42Z</time>
      </trkpt>
      <trkpt lat="49.88342" lon="2.2944">
        <ele>57.1</ele>
        <time>2012-12-08T14:20:51Z</time>
      </trkpt>
      <trkpt lat="49.88357" lon="2.29449">
        <ele>62.9</ele>
        <time>2012-12-08T14:20:57Z</time>
      </trkpt>
      <trkpt lat="49.88427" lon="2.29488">
        <ele>56.3</ele>
        <time>2012-12-08T14:21:10Z</time>
      </trkpt>
      <trkpt lat="49.88427" lon="2.29488">
        <ele>56.3</ele>
        <time>2012-12-08T14:22:50Z</time>
      </trkpt>
      <trkpt lat="49.88482" lon="2.29519">
        <ele>51.8</ele>
        <time>2012-12-08T14:22:50Z</time>
      </trkpt>
      <trkpt lat="49.88497" lon="2.29532">
        <ele>52.3</ele>
        <time>2012-12-08T14:22:58Z</time>
      </trkpt>
      <trkpt lat="49.88511" lon="2.29537">
        <ele>54.9</ele>
        <time>2012-12-08T14:23:07Z</time>
      </trkpt>
      <trkpt lat="49.88527" lon="2.29545">
        <ele>56.3</ele>
        <time>2012-12-08T14:23:20Z</time>
      </trkpt>
      <trkpt lat="49.88542" lon="2.29549">
        <ele>55.4</ele>
        <time>2012-12-08T14:23:32Z</time>
      </trkpt>
      <trkpt lat="49.88554" lon="2.29559">
        <ele>55.8</ele>
        <time>2012-12-08T14:23:41Z</time>
      </trkpt>
      <trkpt lat="49.88575" lon="2.29579">
        <ele>53.8</ele>
        <time>2012-12-08T14:23:58Z</time>
      </trkpt>
      <trkpt lat="49.88575" lon="2.29579">
        <ele>53.8</ele>
        <time>2012-12-08T14:24:33Z</time>
      </trkpt>
      <trkpt lat="49.88582" lon="2.29591">
        <ele>53.2</ele>
        <time>2012-12-08T14:24:33Z</time>
      </trkpt>
      <trkpt lat="49.88597" lon="2.29599">
        <ele>50.8</ele>
        <time>2012-12-08T14:24:43Z</time>
      </trkpt>
      <trkpt lat="49.88613" lon="2.29605">
        <ele>50.8</ele>
        <time>2012-12-08T14:24:54Z</time>
      </trkpt>
      <trkpt lat="49.88626" lon="2.29612">
        <ele>51.6</ele>
        <time>2012-12-08T14:25:06Z</time>
      </trkpt>
      <trkpt lat="49.88639" lon="2.2962">
        <ele>50.4</ele>
        <time>2012-12-08T14:25:21Z</time>
      </trkpt>
      <trkpt lat="49.88657" lon="2.29625">
        <ele>47.7</ele>
        <time>2012-12-08T14:25:27Z</time>
      </trkpt>
      <trkpt lat="49.88677" lon="2.29644">
        <ele>46.1</ele>
        <time>2012-12-08T14:25:35Z</time>
      </trkpt>
      <trkpt lat="49.88677" lon="2.29644">
        <ele>46.1</ele>
        <time>2012-12-08T14:26:12Z</time>
      </trkpt>
      <trkpt lat="49.88683" lon="2.29659">
        <ele>48.6</ele>
        <time>2012-12-08T14:26:18Z</time>
      </trkpt>
      <trkpt lat="49.88698" lon="2.29665">
        <ele>47.9</ele>
        <time>2012-12-08T14:26:28Z</time>
      </trkpt>
      <trkpt lat="49.88712" lon="2.29667">
        <ele>47.3</ele>
        <time>2012-12-08T14:26:35Z</time>
      </trkpt>
      <trkpt lat="49.88727" lon="2.29673">
        <ele>46.7</ele>
        <time>2012-12-08T14:26:43Z</time>
      </trkpt>
      <trkpt lat="49.88741" lon="2.29676">
        <ele>46.1</ele>
        <time>2012-12-08T14:26:51Z</time>
      </trkpt>
      <trkpt lat="49.88754" lon="2.29682">
        <ele>46.5</ele>
        <time>2012-12-08T14:27:01Z</time>
      </trkpt>
      <trkpt lat="49.88768" lon="2.29674">
        <ele>41.1</ele>
        <time>2012-12-08T14:27:11Z</time>
      </trkpt>
      <trkpt lat="49.88774" lon="2.29669">
        <ele>38.7</ele>
        <time>2012-12-08T14:27:21Z</time>
      </trkpt>
      <trkpt lat="49.88781" lon="2.29666">
        <ele>43.7</ele>
        <time>2012-12-08T14:27:33Z</time>
      </trkpt>
      <trkpt lat="49.88782" lon="2.29646">
        <ele>40.5</ele>
        <time>2012-12-08T14:27:51Z</time>
      </trkpt>
      <trkpt lat="49.88787" lon="2.29626">
        <ele>36.6</ele>
        <time>2012-12-08T14:28:00Z</time>
      </trkpt>
      <trkpt lat="49.88787" lon="2.29605">
        <ele>36.1</ele>
        <time>2012-12-08T14:28:13Z</time>
      </trkpt>
      <trkpt lat="49.88789" lon="2.29579">
        <ele>38.3</ele>
        <time>2012-12-08T14:28:21Z</time>
      </trkpt>
      <trkpt lat="49.88786" lon="2.2956">
        <ele>36.3</ele>
        <time>2012-12-08T14:28:38Z</time>
      </trkpt>
      <trkpt lat="49.88796" lon="2.29546">
        <ele>38.9</ele>
        <time>2012-12-08T14:29:00Z</time>
      </trkpt>
      <trkpt lat="49.88809" lon="2.29541">
        <ele>34.4</ele>
        <time>2012-12-08T14:29:11Z</time>
      </trkpt>
      <trkpt lat="49.88824" lon="2.29536">
        <ele>31.2</ele>
        <time>2012-12-08T14:29:27Z</time>
      </trkpt>
      <trkpt lat="49.88834" lon="2.29541">
        <ele>32</ele>
        <time>2012-12-08T14:29:34Z</time>
      </trkpt>
      <trkpt lat="49.88848" lon="2.29581">
        <ele>31.7</ele>
        <time>2012-12-08T14:29:47Z</time>
      </trkpt>
      <trkpt lat="49.88848" lon="2.29581">
        <ele>31.7</ele>
        <time>2012-12-08T14:31:52Z</time>
      </trkpt>
      <trkpt lat="49.88856" lon="2.29599">
        <ele>36.7</ele>
        <time>2012-12-08T14:31:52Z</time>
      </trkpt>
      <trkpt lat="49.88864" lon="2.29607">
        <ele>39.5</ele>
        <time>2012-12-08T14:31:58Z</time>
      </trkpt>
      <trkpt lat="49.88875" lon="2.29602">
        <ele>38.8</ele>
        <time>2012-12-08T14:32:12Z</time>
      </trkpt>
      <trkpt lat="49.88886" lon="2.29617">
        <ele>34.1</ele>
        <time>2012-12-08T14:32:23Z</time>
      </trkpt>
      <trkpt lat="49.88885" lon="2.29639">
        <ele>39</ele>
        <time>2012-12-08T14:32:34Z</time>
      </trkpt>
      <trkpt lat="49.88879" lon="2.29662">
        <ele>32.6</ele>
        <time>2012-12-08T14:32:48Z</time>
      </trkpt>
      <trkpt lat="49.88879" lon="2.29685">
        <ele>35.6</ele>
        <time>2012-12-08T14:32:56Z</time>
      </trkpt>
      <trkpt lat="49.88881" lon="2.29707">
        <ele>41.3</ele>
        <time>2012-12-08T14:33:09Z</time>
      </trkpt>
      <trkpt lat="49.88881" lon="2.29729">
        <ele>37.5</ele>
        <time>2012-12-08T14:33:19Z</time>
      </trkpt>
      <trkpt lat="49.88886" lon="2.2975">
        <ele>37.1</ele>
        <time>2012-12-08T14:33:32Z</time>
      </trkpt>
      <trkpt lat="49.88891" lon="2.29773">
        <ele>38.4</ele>
        <time>2012-12-08T14:33:41Z</time>
      </trkpt>
      <trkpt lat="49.88883" lon="2.29792">
        <ele>31.9</ele>
        <time>2012-12-08T14:33:54Z</time>
      </trkpt>
      <trkpt lat="49.88881" lon="2.29813">
        <ele>37.3</ele>
        <time>2012-12-08T14:34:12Z</time>
      </trkpt>
      <trkpt lat="49.88882" lon="2.29834">
        <ele>35.5</ele>
        <time>2012-12-08T14:34:20Z</time>
      </trkpt>
      <trkpt lat="49.88885" lon="2.29856">
        <ele>32.7</ele>
        <time>2012-12-08T14:34:36Z</time>
      </trkpt>
      <trkpt lat="49.88881" lon="2.29879">
        <ele>30.9</ele>
        <time>2012-12-08T14:34:45Z</time>
      </trkpt>
      <trkpt lat="49.88879" lon="2.29901">
        <ele>26.7</ele>
        <time>2012-12-08T14:35:03Z</time>
      </trkpt>
      <trkpt lat="49.88877" lon="2.29925">
        <ele>13.6</ele>
        <time>2012-12-08T14:35:19Z</time>
      </trkpt>
      <trkpt lat="49.88877" lon="2.29952">
        <ele>20.1</ele>
        <time>2012-12-08T14:35:36Z</time>
      </trkpt>
      <trkpt lat="49.88876" lon="2.29978">
        <ele>23.7</ele>
        <time>2012-12-08T14:35:44Z</time>
      </trkpt>
      <trkpt lat="49.88876" lon="2.29993">
        <ele>24.7</ele>
        <time>2012-12-08T14:35:49Z</time>
      </trkpt>
      <trkpt lat="49.88863" lon="2.30001">
        <ele>24.9</ele>
        <time>2012-12-08T14:35:56Z</time>
      </trkpt>
      <trkpt lat="49.88848" lon="2.29998">
        <ele>27.6</ele>
        <time>2012-12-08T14:36:02Z</time>
      </trkpt>
      <trkpt lat="49.88832" lon="2.29995">
        <ele>30.9</ele>
        <time>2012-12-08T14:36:09Z</time>
      </trkpt>
      <trkpt lat="49.88818" lon="2.29993">
        <ele>34.9</ele>
        <time>2012-12-08T14:36:20Z</time>
      </trkpt>
      <trkpt lat="49.88809" lon="2.29994">
        <ele>36.7</ele>
        <time>2012-12-08T14:36:26Z</time>
      </trkpt>
      <trkpt lat="49.88809" lon="2.30015">
        <ele>31.2</ele>
        <time>2012-12-08T14:36:36Z</time>
      </trkpt>
      <trkpt lat="49.88809" lon="2.30031">
        <ele>28.2</ele>
        <time>2012-12-08T14:36:45Z</time>
      </trkpt>
      <trkpt lat="49.88811" lon="2.30053">
        <ele>27.2</ele>
        <time>2012-12-08T14:37:00Z</time>
      </trkpt>
      <trkpt lat="49.8881" lon="2.30076">
        <ele>26.4</ele>
        <time>2012-12-08T14:37:11Z</time>
      </trkpt>
      <trkpt lat="49.88809" lon="2.30097">
        <ele>24</ele>
        <time>2012-12-08T14:37:24Z</time>
      </trkpt>
      <trkpt lat="49.88806" lon="2.3012">
        <ele>22.3</ele>
        <time>2012-12-08T14:37:34Z</time>
      </trkpt>
      <trkpt lat="49.88806" lon="2.30142">
        <ele>26.9</ele>
        <time>2012-12-08T14:37:43Z</time>
      </trkpt>
      <trkpt lat="49.88806" lon="2.30165">
        <ele>32</ele>
        <time>2012-12-08T14:37:53Z</time>
      </trkpt>
      <trkpt lat="49.88804" lon="2.30178">
        <ele>38.4</ele>
        <time>2012-12-08T14:38:06Z</time>
      </trkpt>
      <trkpt lat="49.88791" lon="2.30192">
        <ele>37.9</ele>
        <time>2012-12-08T14:38:15Z</time>
      </trkpt>
      <trkpt lat="49.8878" lon="2.30204">
        <ele>38.6</ele>
        <time>2012-12-08T14:38:23Z</time>
      </trkpt>
      <trkpt lat="49.88783" lon="2.30209">
        <ele>31.1</ele>
        <time>2012-12-08T14:38:36Z</time>
      </trkpt>
      <trkpt lat="49.88783" lon="2.30209">
        <ele>31.1</ele>
        <time>2012-12-08T14:43:38Z</time>
      </trkpt>
      <trkpt lat="49.88794" lon="2.30215">
        <ele>27.1</ele>
        <time>2012-12-08T14:43:38Z</time>
      </trkpt>
      <trkpt lat="49.88803" lon="2.30236">
        <ele>30.1</ele>
        <time>2012-12-08T14:43:51Z</time>
      </trkpt>
      <trkpt lat="49.88806" lon="2.30258">
        <ele>29.2</ele>
        <time>2012-12-08T14:44:10Z</time>
      </trkpt>
      <trkpt lat="49.88806" lon="2.30258">
        <ele>29.2</ele>
        <time>2012-12-08T14:45:02Z</time>
      </trkpt>
      <trkpt lat="49.88805" lon="2.30268">
        <ele>26.7</ele>
        <time>2012-12-08T14:45:04Z</time>
      </trkpt>
      <trkpt lat="49.88814" lon="2.30276">
        <ele>29.6</ele>
        <time>2012-12-08T14:45:15Z</time>
      </trkpt>
      <trkpt lat="49.88828" lon="2.30269">
        <ele>28</ele>
        <time>2012-12-08T14:45:43Z</time>
      </trkpt>
      <trkpt lat="49.88833" lon="2.30269">
        <ele>12.2</ele>
        <time>2012-12-08T14:45:57Z</time>
      </trkpt>
      <trkpt lat="49.88834" lon="2.30266">
        <ele>10.3</ele>
        <time>2012-12-08T14:46:00Z</time>
      </trkpt>
      <trkpt lat="49.88845" lon="2.30258">
        <ele>27.4</ele>
        <time>2012-12-08T14:46:21Z</time>
      </trkpt>
      <trkpt lat="49.88854" lon="2.30266">
        <ele>19.4</ele>
        <time>2012-12-08T14:46:29Z</time>
      </trkpt>
      <trkpt lat="49.88874" lon="2.30273">
        <ele>31.5</ele>
        <time>2012-12-08T14:46:46Z</time>
      </trkpt>
      <trkpt lat="49.88874" lon="2.30273">
        <ele>31.5</ele>
        <time>2012-12-08T14:47:52Z</time>
      </trkpt>
      <trkpt lat="49.8888" lon="2.30273">
        <ele>41.1</ele>
        <time>2012-12-08T14:47:52Z</time>
      </trkpt>
      <trkpt lat="49.88898" lon="2.30279">
        <ele>49.8</ele>
        <time>2012-12-08T14:48:24Z</time>
      </trkpt>
      <trkpt lat="49.88913" lon="2.30287">
        <ele>60.1</ele>
        <time>2012-12-08T14:48:43Z</time>
      </trkpt>
      <trkpt lat="49.88928" lon="2.30282">
        <ele>43.3</ele>
        <time>2012-12-08T14:49:00Z</time>
      </trkpt>
      <trkpt lat="49.88928" lon="2.30278">
        <ele>41.9</ele>
        <time>2012-12-08T14:49:01Z</time>
      </trkpt>
      <trkpt lat="49.88942" lon="2.30274">
        <ele>37.3</ele>
        <time>2012-12-08T14:49:10Z</time>
      </trkpt>
      <trkpt lat="49.88954" lon="2.30284">
        <ele>34.8</ele>
        <time>2012-12-08T14:49:20Z</time>
      </trkpt>
      <trkpt lat="49.88969" lon="2.30274">
        <ele>38.8</ele>
        <time>2012-12-08T14:49:38Z</time>
      </trkpt>
      <trkpt lat="49.88976" lon="2.30258">
        <ele>37.5</ele>
        <time>2012-12-08T14:49:55Z</time>
      </trkpt>
      <trkpt lat="49.88992" lon="2.30261">
        <ele>36.8</ele>
        <time>2012-12-08T14:50:01Z</time>
      </trkpt>
      <trkpt lat="49.89008" lon="2.30245">
        <ele>33.9</ele>
        <time>2012-12-08T14:50:14Z</time>
      </trkpt>
      <trkpt lat="49.89022" lon="2.3024">
        <ele>32.9</ele>
        <time>2012-12-08T14:50:19Z</time>
      </trkpt>
      <trkpt lat="49.89035" lon="2.30234">
        <ele>29.7</ele>
        <time>2012-12-08T14:50:25Z</time>
      </trkpt>
      <trkpt lat="49.89049" lon="2.3023">
        <ele>27.1</ele>
        <time>2012-12-08T14:50:32Z</time>
      </trkpt>
      <trkpt lat="49.89062" lon="2.30221">
        <ele>26.3</ele>
        <time>2012-12-08T14:50:38Z</time>
      </trkpt>
      <trkpt lat="49.89074" lon="2.30206">
        <ele>25.4</ele>
        <time>2012-12-08T14:50:44Z</time>
      </trkpt>
      <trkpt lat="49.8908" lon="2.30193">
        <ele>24.5</ele>
        <time>2012-12-08T14:50:49Z</time>
      </trkpt>
      <trkpt lat="49.89072" lon="2.30184">
        <ele>23.4</ele>
        <time>2012-12-08T14:50:58Z</time>
      </trkpt>
      <trkpt lat="49.89068" lon="2.30181">
        <ele>23.2</ele>
        <time>2012-12-08T14:51:02Z</time>
      </trkpt>
      <trkpt lat="49.89073" lon="2.3016">
        <ele>22.1</ele>
        <time>2012-12-08T14:51:13Z</time>
      </trkpt>
      <trkpt lat="49.89076" lon="2.30144">
        <ele>19.8</ele>
        <time>2012-12-08T14:51:23Z</time>
      </trkpt>
      <trkpt lat="49.89084" lon="2.30128">
        <ele>20</ele>
        <time>2012-12-08T14:51:37Z</time>
      </trkpt>
      <trkpt lat="49.89086" lon="2.30118">
        <ele>18.6</ele>
        <time>2012-12-08T14:51:46Z</time>
      </trkpt>
      <trkpt lat="49.89098" lon="2.30101">
        <ele>20.4</ele>
        <time>2012-12-08T14:52:01Z</time>
      </trkpt>
      <trkpt lat="49.89109" lon="2.30087">
        <ele>22.1</ele>
        <time>2012-12-08T14:52:05Z</time>
      </trkpt>
      <trkpt lat="49.8912" lon="2.30075">
        <ele>20.6</ele>
        <time>2012-12-08T14:52:13Z</time>
      </trkpt>
      <trkpt lat="49.89123" lon="2.30069">
        <ele>22.2</ele>
        <time>2012-12-08T14:52:16Z</time>
      </trkpt>
      <trkpt lat="49.89126" lon="2.30045">
        <ele>25.9</ele>
        <time>2012-12-08T14:52:23Z</time>
      </trkpt>
      <trkpt lat="49.8913" lon="2.30034">
        <ele>29.4</ele>
        <time>2012-12-08T14:52:30Z</time>
      </trkpt>
      <trkpt lat="49.8913" lon="2.30012">
        <ele>32.4</ele>
        <time>2012-12-08T14:52:39Z</time>
      </trkpt>
      <trkpt lat="49.89133" lon="2.29997">
        <ele>31.8</ele>
        <time>2012-12-08T14:52:59Z</time>
      </trkpt>
      <trkpt lat="49.89132" lon="2.2999">
        <ele>33</ele>
        <time>2012-12-08T14:53:02Z</time>
      </trkpt>
      <trkpt lat="49.89138" lon="2.29966">
        <ele>28.3</ele>
        <time>2012-12-08T14:53:16Z</time>
      </trkpt>
      <trkpt lat="49.8915" lon="2.29947">
        <ele>19.4</ele>
        <time>2012-12-08T14:53:26Z</time>
      </trkpt>
      <trkpt lat="49.89167" lon="2.29933">
        <ele>13.5</ele>
        <time>2012-12-08T14:53:38Z</time>
      </trkpt>
      <trkpt lat="49.89179" lon="2.29923">
        <ele>16.6</ele>
        <time>2012-12-08T14:53:43Z</time>
      </trkpt>
      <trkpt lat="49.89191" lon="2.29912">
        <ele>15.5</ele>
        <time>2012-12-08T14:53:51Z</time>
      </trkpt>
      <trkpt lat="49.89201" lon="2.29896">
        <ele>20.3</ele>
        <time>2012-12-08T14:54:02Z</time>
      </trkpt>
      <trkpt lat="49.89238" lon="2.29814">
        <ele>23.8</ele>
        <time>2012-12-08T14:54:20Z</time>
      </trkpt>
      <trkpt lat="49.89238" lon="2.29814">
        <ele>23.8</ele>
        <time>2012-12-08T14:54:52Z</time>
      </trkpt>
      <trkpt lat="49.8927" lon="2.29752">
        <ele>24</ele>
        <time>2012-12-08T14:55:07Z</time>
      </trkpt>
      <trkpt lat="49.89267" lon="2.29743">
        <ele>20.1</ele>
        <time>2012-12-08T14:55:31Z</time>
      </trkpt>
      <trkpt lat="49.89253" lon="2.29723">
        <ele>21.9</ele>
        <time>2012-12-08T14:55:36Z</time>
      </trkpt>
      <trkpt lat="49.89244" lon="2.29707">
        <ele>23.3</ele>
        <time>2012-12-08T14:55:40Z</time>
      </trkpt>
      <trkpt lat="49.89259" lon="2.29698">
        <ele>17.6</ele>
        <time>2012-12-08T14:55:59Z</time>
      </trkpt>
      <trkpt lat="49.89269" lon="2.29677">
        <ele>13.9</ele>
        <time>2012-12-08T14:56:10Z</time>
      </trkpt>
      <trkpt lat="49.89273" lon="2.29654">
        <ele>12</ele>
        <time>2012-12-08T14:56:26Z</time>
      </trkpt>
      <trkpt lat="49.89283" lon="2.29635">
        <ele>5.8</ele>
        <time>2012-12-08T14:56:37Z</time>
      </trkpt>
      <trkpt lat="49.89287" lon="2.29629">
        <ele>5.4</ele>
        <time>2012-12-08T14:56:42Z</time>
      </trkpt>
      <trkpt lat="49.89292" lon="2.2963">
        <ele>4.8</ele>
        <time>2012-12-08T14:56:49Z</time>
      </trkpt>
      <trkpt lat="49.89296" lon="2.29633">
        <ele>2.4</ele>
        <time>2012-12-08T14:56:53Z</time>
      </trkpt>
      <trkpt lat="49.89307" lon="2.29619">
        <ele>4</ele>
        <time>2012-12-08T14:56:59Z</time>
      </trkpt>
      <trkpt lat="49.89309" lon="2.29604">
        <ele>7.8</ele>
        <time>2012-12-08T14:57:04Z</time>
      </trkpt>
      <trkpt lat="49.89308" lon="2.29581">
        <ele>14.4</ele>
        <time>2012-12-08T14:57:15Z</time>
      </trkpt>
      <trkpt lat="49.89311" lon="2.29561">
        <ele>17.1</ele>
        <time>2012-12-08T14:57:23Z</time>
      </trkpt>
      <trkpt lat="49.89313" lon="2.29553">
        <ele>19.7</ele>
        <time>2012-12-08T14:57:28Z</time>
      </trkpt>
      <trkpt lat="49.89309" lon="2.29532">
        <ele>24.2</ele>
        <time>2012-12-08T14:57:37Z</time>
      </trkpt>
      <trkpt lat="49.89304" lon="2.29509">
        <ele>28.3</ele>
        <time>2012-12-08T14:57:45Z</time>
      </trkpt>
      <trkpt lat="49.89301" lon="2.29486">
        <ele>35.6</ele>
        <time>2012-12-08T14:57:59Z</time>
      </trkpt>
      <trkpt lat="49.89304" lon="2.29465">
        <ele>41</ele>
        <time>2012-12-08T14:58:13Z</time>
      </trkpt>
      <trkpt lat="49.89305" lon="2.29444">
        <ele>41.9</ele>
        <time>2012-12-08T14:58:17Z</time>
      </trkpt>
      <trkpt lat="49.89298" lon="2.29419">
        <ele>35.5</ele>
        <time>2012-12-08T14:58:29Z</time>
      </trkpt>
      <trkpt lat="49.89299" lon="2.29395">
        <ele>30.3</ele>
        <time>2012-12-08T14:58:49Z</time>
      </trkpt>
      <trkpt lat="49.8929" lon="2.29379">
        <ele>27.3</ele>
        <time>2012-12-08T14:59:01Z</time>
      </trkpt>
      <trkpt lat="49.89279" lon="2.29364">
        <ele>30.4</ele>
        <time>2012-12-08T14:59:11Z</time>
      </trkpt>
      <trkpt lat="49.8927" lon="2.29348">
        <ele>30</ele>
        <time>2012-12-08T14:59:22Z</time>
      </trkpt>
      <trkpt lat="49.89266" lon="2.29342">
        <ele>31.8</ele>
        <time>2012-12-08T14:59:27Z</time>
      </trkpt>
      <trkpt lat="49.89265" lon="2.29328">
        <ele>37.3</ele>
        <time>2012-12-08T14:59:43Z</time>
      </trkpt>
      <trkpt lat="49.89258" lon="2.2932">
        <ele>36.3</ele>
        <time>2012-12-08T14:59:49Z</time>
      </trkpt>
      <trkpt lat="49.89251" lon="2.29301">
        <ele>32.9</ele>
        <time>2012-12-08T14:59:52Z</time>
      </trkpt>
      <trkpt lat="49.89249" lon="2.29295">
        <ele>29.4</ele>
        <time>2012-12-08T14:59:55Z</time>
      </trkpt>
      <trkpt lat="49.89257" lon="2.29276">
        <ele>23.8</ele>
        <time>2012-12-08T15:00:02Z</time>
      </trkpt>
      <trkpt lat="49.89262" lon="2.29266">
        <ele>21.1</ele>
        <time>2012-12-08T15:00:07Z</time>
      </trkpt>
      <trkpt lat="49.89262" lon="2.29261">
        <ele>16.9</ele>
        <time>2012-12-08T15:00:11Z</time>
      </trkpt>
      <trkpt lat="49.89276" lon="2.29254">
        <ele>13.2</ele>
        <time>2012-12-08T15:00:23Z</time>
      </trkpt>
      <trkpt lat="49.8929" lon="2.29259">
        <ele>24.1</ele>
        <time>2012-12-08T15:00:41Z</time>
      </trkpt>
      <trkpt lat="49.89303" lon="2.29264">
        <ele>27.3</ele>
        <time>2012-12-08T15:00:52Z</time>
      </trkpt>
      <trkpt lat="49.89319" lon="2.29268">
        <ele>29.4</ele>
        <time>2012-12-08T15:01:00Z</time>
      </trkpt>
      <trkpt lat="49.89334" lon="2.29273">
        <ele>29.3</ele>
        <time>2012-12-08T15:01:15Z</time>
      </trkpt>
      <trkpt lat="49.89342" lon="2.29273">
        <ele>23.9</ele>
        <time>2012-12-08T15:01:19Z</time>
      </trkpt>
      <trkpt lat="49.89346" lon="2.2928">
        <ele>21.8</ele>
        <time>2012-12-08T15:01:33Z</time>
      </trkpt>
      <trkpt lat="49.89361" lon="2.29285">
        <ele>10.4</ele>
        <time>2012-12-08T15:01:40Z</time>
      </trkpt>
      <trkpt lat="49.89375" lon="2.29285">
        <ele>9.2</ele>
        <time>2012-12-08T15:01:50Z</time>
      </trkpt>
      <trkpt lat="49.89381" lon="2.29278">
        <ele>6.1</ele>
        <time>2012-12-08T15:01:55Z</time>
      </trkpt>
      <trkpt lat="49.89388" lon="2.29281">
        <ele>11.9</ele>
        <time>2012-12-08T15:02:00Z</time>
      </trkpt>
      <trkpt lat="49.89389" lon="2.29279">
        <ele>13.1</ele>
        <time>2012-12-08T15:02:01Z</time>
      </trkpt>
      <trkpt lat="49.89397" lon="2.29299">
        <ele>20.7</ele>
        <time>2012-12-08T15:02:10Z</time>
      </trkpt>
      <trkpt lat="49.89408" lon="2.29315">
        <ele>22.1</ele>
        <time>2012-12-08T15:02:18Z</time>
      </trkpt>
      <trkpt lat="49.89419" lon="2.29317">
        <ele>23.6</ele>
        <time>2012-12-08T15:02:26Z</time>
      </trkpt>
      <trkpt lat="49.89432" lon="2.29313">
        <ele>20.9</ele>
        <time>2012-12-08T15:02:40Z</time>
      </trkpt>
      <trkpt lat="49.89444" lon="2.29317">
        <ele>19.1</ele>
        <time>2012-12-08T15:02:49Z</time>
      </trkpt>
      <trkpt lat="49.89455" lon="2.29328">
        <ele>6.7</ele>
        <time>2012-12-08T15:03:12Z</time>
      </trkpt>
      <trkpt lat="49.89471" lon="2.29326">
        <ele>2.5</ele>
        <time>2012-12-08T15:03:25Z</time>
      </trkpt>
      <trkpt lat="49.89487" lon="2.2933">
        <ele>1.7</ele>
        <time>2012-12-08T15:03:34Z</time>
      </trkpt>
      <trkpt lat="49.89499" lon="2.29338">
        <ele>3.5</ele>
        <time>2012-12-08T15:03:40Z</time>
      </trkpt>
      <trkpt lat="49.89513" lon="2.2934">
        <ele>1.6</ele>
        <time>2012-12-08T15:03:47Z</time>
      </trkpt>
      <trkpt lat="49.89523" lon="2.29338">
        <ele>12</ele>
        <time>2012-12-08T15:04:00Z</time>
      </trkpt>
      <trkpt lat="49.89531" lon="2.29361">
        <ele>10.1</ele>
        <time>2012-12-08T15:04:07Z</time>
      </trkpt>
      <trkpt lat="49.89533" lon="2.29385">
        <ele>11.3</ele>
        <time>2012-12-08T15:04:16Z</time>
      </trkpt>
      <trkpt lat="49.89542" lon="2.29403">
        <ele>18.9</ele>
        <time>2012-12-08T15:04:32Z</time>
      </trkpt>
      <trkpt lat="49.89543" lon="2.29417">
        <ele>23.5</ele>
        <time>2012-12-08T15:04:42Z</time>
      </trkpt>
      <trkpt lat="49.89539" lon="2.29436">
        <ele>26.8</ele>
        <time>2012-12-08T15:04:49Z</time>
      </trkpt>
      <trkpt lat="49.89542" lon="2.29445">
        <ele>33.3</ele>
        <time>2012-12-08T15:05:05Z</time>
      </trkpt>
      <trkpt lat="49.89539" lon="2.29476">
        <ele>34</ele>
        <time>2012-12-08T15:05:09Z</time>
      </trkpt>
      <trkpt lat="49.8954" lon="2.29497">
        <ele>38.5</ele>
        <time>2012-12-08T15:05:16Z</time>
      </trkpt>
      <trkpt lat="49.89544" lon="2.2952">
        <ele>46.2</ele>
        <time>2012-12-08T15:05:35Z</time>
      </trkpt>
      <trkpt lat="49.89532" lon="2.29561">
        <ele>41.1</ele>
        <time>2012-12-08T15:05:49Z</time>
      </trkpt>
      <trkpt lat="49.89532" lon="2.29561">
        <ele>41.1</ele>
        <time>2012-12-08T15:06:26Z</time>
      </trkpt>
      <trkpt lat="49.89527" lon="2.29573">
        <ele>36.2</ele>
        <time>2012-12-08T15:06:26Z</time>
      </trkpt>
      <trkpt lat="49.89521" lon="2.296">
        <ele>33.1</ele>
        <time>2012-12-08T15:06:32Z</time>
      </trkpt>
      <trkpt lat="49.89521" lon="2.296">
        <ele>33.1</ele>
        <time>2012-12-08T15:07:17Z</time>
      </trkpt>
      <trkpt lat="49.89522" lon="2.2961">
        <ele>29.2</ele>
        <time>2012-12-08T15:07:22Z</time>
      </trkpt>
      <trkpt lat="49.89536" lon="2.29614">
        <ele>29.3</ele>
        <time>2012-12-08T15:07:39Z</time>
      </trkpt>
      <trkpt lat="49.89549" lon="2.29629">
        <ele>32.7</ele>
        <time>2012-12-08T15:07:50Z</time>
      </trkpt>
      <trkpt lat="49.8955" lon="2.29653">
        <ele>34.5</ele>
        <time>2012-12-08T15:07:57Z</time>
      </trkpt>
      <trkpt lat="49.89547" lon="2.29703">
        <ele>32.5</ele>
        <time>2012-12-08T15:08:25Z</time>
      </trkpt>
      <trkpt lat="49.89547" lon="2.29703">
        <ele>32.5</ele>
        <time>2012-12-08T15:09:53Z</time>
      </trkpt>
      <trkpt lat="49.89534" lon="2.29747">
        <ele>38.4</ele>
        <time>2012-12-08T15:10:10Z</time>
      </trkpt>
      <trkpt lat="49.89534" lon="2.29747">
        <ele>38.4</ele>
        <time>2012-12-08T15:10:52Z</time>
      </trkpt>
      <trkpt lat="49.89524" lon="2.29763">
        <ele>41.6</ele>
        <time>2012-12-08T15:10:55Z</time>
      </trkpt>
      <trkpt lat="49.89518" lon="2.29771">
        <ele>32.8</ele>
        <time>2012-12-08T15:11:01Z</time>
      </trkpt>
      <trkpt lat="49.89524" lon="2.29791">
        <ele>31.3</ele>
        <time>2012-12-08T15:11:17Z</time>
      </trkpt>
      <trkpt lat="49.89517" lon="2.29817">
        <ele>29.6</ele>
        <time>2012-12-08T15:11:35Z</time>
      </trkpt>
      <trkpt lat="49.8951" lon="2.29837">
        <ele>31.9</ele>
        <time>2012-12-08T15:11:42Z</time>
      </trkpt>
      <trkpt lat="49.89506" lon="2.29858">
        <ele>32.5</ele>
        <time>2012-12-08T15:11:50Z</time>
      </trkpt>
      <trkpt lat="49.89502" lon="2.29879">
        <ele>32.6</ele>
        <time>2012-12-08T15:12:00Z</time>
      </trkpt>
      <trkpt lat="49.89499" lon="2.29901">
        <ele>26.6</ele>
        <time>2012-12-08T15:12:12Z</time>
      </trkpt>
      <trkpt lat="49.89501" lon="2.29923">
        <ele>25.3</ele>
        <time>2012-12-08T15:12:29Z</time>
      </trkpt>
      <trkpt lat="49.89493" lon="2.29934">
        <ele>27.6</ele>
        <time>2012-12-08T15:12:35Z</time>
      </trkpt>
      <trkpt lat="49.89489" lon="2.29954">
        <ele>33.2</ele>
        <time>2012-12-08T15:12:50Z</time>
      </trkpt>
      <trkpt lat="49.89483" lon="2.29976">
        <ele>30.5</ele>
        <time>2012-12-08T15:13:03Z</time>
      </trkpt>
      <trkpt lat="49.89477" lon="2.29999">
        <ele>26.1</ele>
        <time>2012-12-08T15:13:14Z</time>
      </trkpt>
      <trkpt lat="49.89478" lon="2.3002">
        <ele>23.1</ele>
        <time>2012-12-08T15:13:20Z</time>
      </trkpt>
      <trkpt lat="49.8948" lon="2.30038">
        <ele>13.7</ele>
        <time>2012-12-08T15:13:32Z</time>
      </trkpt>
      <trkpt lat="49.89489" lon="2.30052">
        <ele>11.1</ele>
        <time>2012-12-08T15:13:45Z</time>
      </trkpt>
      <trkpt lat="49.89488" lon="2.30072">
        <ele>12.9</ele>
        <time>2012-12-08T15:13:50Z</time>
      </trkpt>
      <trkpt lat="49.89483" lon="2.30092">
        <ele>1</ele>
        <time>2012-12-08T15:14:04Z</time>
      </trkpt>
      <trkpt lat="49.89488" lon="2.30095">
        <ele>21.4</ele>
        <time>2012-12-08T15:14:28Z</time>
      </trkpt>
      <trkpt lat="49.89488" lon="2.30095">
        <ele>21.4</ele>
        <time>2012-12-08T15:15:12Z</time>
      </trkpt>
      <trkpt lat="49.89494" lon="2.30075">
        <ele>33.1</ele>
        <time>2012-12-08T15:15:25Z</time>
      </trkpt>
      <trkpt lat="49.89507" lon="2.30082">
        <ele>35.8</ele>
        <time>2012-12-08T15:15:38Z</time>
      </trkpt>
      <trkpt lat="49.8948" lon="2.30114">
        <ele>39.6</ele>
        <time>2012-12-08T15:16:04Z</time>
      </trkpt>
      <trkpt lat="49.89471" lon="2.30128">
        <ele>40.4</ele>
        <time>2012-12-08T15:16:11Z</time>
      </trkpt>
      <trkpt lat="49.89466" lon="2.30125">
        <ele>40.6</ele>
        <time>2012-12-08T15:16:15Z</time>
      </trkpt>
      <trkpt lat="49.89479" lon="2.30113">
        <ele>41.1</ele>
        <time>2012-12-08T15:16:21Z</time>
      </trkpt>
      <trkpt lat="49.89478" lon="2.30118">
        <ele>41.6</ele>
        <time>2012-12-08T15:16:28Z</time>
      </trkpt>
      <trkpt lat="49.89454" lon="2.30148">
        <ele>42.1</ele>
        <time>2012-12-08T15:16:34Z</time>
      </trkpt>
      <trkpt lat="49.89448" lon="2.30148">
        <ele>41.8</ele>
        <time>2012-12-08T15:16:36Z</time>
      </trkpt>
      <trkpt lat="49.89454" lon="2.30177">
        <ele>39.5</ele>
        <time>2012-12-08T15:16:49Z</time>
      </trkpt>
      <trkpt lat="49.89454" lon="2.30177">
        <ele>39.5</ele>
        <time>2012-12-08T15:17:28Z</time>
      </trkpt>
      <trkpt lat="49.89463" lon="2.30217">
        <ele>38.3</ele>
        <time>2012-12-08T15:17:28Z</time>
      </trkpt>
      <trkpt lat="49.89448" lon="2.30196">
        <ele>38.3</ele>
        <time>2012-12-08T15:17:29Z</time>
      </trkpt>
      <trkpt lat="49.89495" lon="2.30088">
        <ele>38.3</ele>
        <time>2012-12-08T15:17:35Z</time>
      </trkpt>
      <trkpt lat="49.89484" lon="2.30113">
        <ele>37.5</ele>
        <time>2012-12-08T15:18:48Z</time>
      </trkpt>
      <trkpt lat="49.89497" lon="2.30087">
        <ele>37.2</ele>
        <time>2012-12-08T15:19:13Z</time>
      </trkpt>
      <trkpt lat="49.89483" lon="2.30106">
        <ele>37.1</ele>
        <time>2012-12-08T15:19:23Z</time>
      </trkpt>
      <trkpt lat="49.89514" lon="2.30055">
        <ele>36.9</ele>
        <time>2012-12-08T15:19:44Z</time>
      </trkpt>
      <trkpt lat="49.89558" lon="2.30328">
        <ele>36.7</ele>
        <time>2012-12-08T15:20:04Z</time>
      </trkpt>
      <trkpt lat="49.8956" lon="2.30352">
        <ele>36.7</ele>
        <time>2012-12-08T15:20:06Z</time>
      </trkpt>
      <trkpt lat="49.89477" lon="2.30193">
        <ele>36.6</ele>
        <time>2012-12-08T15:20:12Z</time>
      </trkpt>
      <trkpt lat="49.8947" lon="2.30397">
        <ele>36.3</ele>
        <time>2012-12-08T15:20:38Z</time>
      </trkpt>
      <trkpt lat="49.89478" lon="2.30401">
        <ele>36.3</ele>
        <time>2012-12-08T15:20:40Z</time>
      </trkpt>
      <trkpt lat="49.89421" lon="2.30235">
        <ele>37</ele>
        <time>2012-12-08T15:21:04Z</time>
      </trkpt>
      <trkpt lat="49.89421" lon="2.30235">
        <ele>37</ele>
        <time>2012-12-08T15:22:17Z</time>
      </trkpt>
      <trkpt lat="49.89447" lon="2.30159">
        <ele>37.9</ele>
        <time>2012-12-08T15:22:18Z</time>
      </trkpt>
      <trkpt lat="49.8943" lon="2.30191">
        <ele>38</ele>
        <time>2012-12-08T15:22:19Z</time>
      </trkpt>
      <trkpt lat="49.89444" lon="2.30157">
        <ele>38.7</ele>
        <time>2012-12-08T15:22:33Z</time>
      </trkpt>
      <trkpt lat="49.89452" lon="2.30143">
        <ele>38.8</ele>
        <time>2012-12-08T15:22:34Z</time>
      </trkpt>
      <trkpt lat="49.89389" lon="2.30163">
        <ele>39.1</ele>
        <time>2012-12-08T15:22:41Z</time>
      </trkpt>
      <trkpt lat="49.89441" lon="2.30138">
        <ele>41.2</ele>
        <time>2012-12-08T15:23:05Z</time>
      </trkpt>
      <trkpt lat="49.89443" lon="2.3017">
        <ele>40.2</ele>
        <time>2012-12-08T15:23:16Z</time>
      </trkpt>
      <trkpt lat="49.89455" lon="2.30144">
        <ele>38.9</ele>
        <time>2012-12-08T15:23:35Z</time>
      </trkpt>
      <trkpt lat="49.89446" lon="2.30162">
        <ele>37.5</ele>
        <time>2012-12-08T15:24:16Z</time>
      </trkpt>
      <trkpt lat="49.89441" lon="2.30172">
        <ele>35</ele>
        <time>2012-12-08T15:24:23Z</time>
      </trkpt>
      <trkpt lat="49.89423" lon="2.3019">
        <ele>33.3</ele>
        <time>2012-12-08T15:24:28Z</time>
      </trkpt>
      <trkpt lat="49.89416" lon="2.30209">
        <ele>25.4</ele>
        <time>2012-12-08T15:24:57Z</time>
      </trkpt>
      <trkpt lat="49.89405" lon="2.30224">
        <ele>31.4</ele>
        <time>2012-12-08T15:25:09Z</time>
      </trkpt>
      <trkpt lat="49.89394" lon="2.3024">
        <ele>28.3</ele>
        <time>2012-12-08T15:25:23Z</time>
      </trkpt>
      <trkpt lat="49.8939" lon="2.30266">
        <ele>27.2</ele>
        <time>2012-12-08T15:25:39Z</time>
      </trkpt>
      <trkpt lat="49.894" lon="2.30284">
        <ele>29.8</ele>
        <time>2012-12-08T15:25:55Z</time>
      </trkpt>
      <trkpt lat="49.89406" lon="2.30302">
        <ele>33.3</ele>
        <time>2012-12-08T15:26:06Z</time>
      </trkpt>
      <trkpt lat="49.89414" lon="2.30325">
        <ele>31.1</ele>
        <time>2012-12-08T15:26:19Z</time>
      </trkpt>
      <trkpt lat="49.89408" lon="2.30346">
        <ele>30.8</ele>
        <time>2012-12-08T15:26:36Z</time>
      </trkpt>
      <trkpt lat="49.89414" lon="2.30353">
        <ele>25.3</ele>
        <time>2012-12-08T15:26:51Z</time>
      </trkpt>
      <trkpt lat="49.89428" lon="2.30352">
        <ele>24.9</ele>
        <time>2012-12-08T15:26:59Z</time>
      </trkpt>
      <trkpt lat="49.89441" lon="2.30362">
        <ele>21.9</ele>
        <time>2012-12-08T15:27:13Z</time>
      </trkpt>
      <trkpt lat="49.89452" lon="2.30376">
        <ele>25.1</ele>
        <time>2012-12-08T15:27:25Z</time>
      </trkpt>
      <trkpt lat="49.89463" lon="2.30391">
        <ele>21.3</ele>
        <time>2012-12-08T15:27:36Z</time>
      </trkpt>
      <trkpt lat="49.89475" lon="2.30402">
        <ele>21.2</ele>
        <time>2012-12-08T15:27:50Z</time>
      </trkpt>
      <trkpt lat="49.89486" lon="2.30388">
        <ele>19.6</ele>
        <time>2012-12-08T15:28:04Z</time>
      </trkpt>
      <trkpt lat="49.89507" lon="2.3038">
        <ele>28.1</ele>
        <time>2012-12-08T15:28:20Z</time>
      </trkpt>
      <trkpt lat="49.8952" lon="2.30372">
        <ele>32.7</ele>
        <time>2012-12-08T15:28:33Z</time>
      </trkpt>
      <trkpt lat="49.89528" lon="2.30354">
        <ele>26.4</ele>
        <time>2012-12-08T15:28:52Z</time>
      </trkpt>
      <trkpt lat="49.89535" lon="2.30348">
        <ele>20.6</ele>
        <time>2012-12-08T15:29:00Z</time>
      </trkpt>
      <trkpt lat="49.89543" lon="2.3035">
        <ele>19</ele>
        <time>2012-12-08T15:29:14Z</time>
      </trkpt>
      <trkpt lat="49.89555" lon="2.30342">
        <ele>26.8</ele>
        <time>2012-12-08T15:29:33Z</time>
      </trkpt>
      <trkpt lat="49.8957" lon="2.30353">
        <ele>15.7</ele>
        <time>2012-12-08T15:29:43Z</time>
      </trkpt>
      <trkpt lat="49.8958" lon="2.30376">
        <ele>10.7</ele>
        <time>2012-12-08T15:30:03Z</time>
      </trkpt>
      <trkpt lat="49.89592" lon="2.30389">
        <ele>15.8</ele>
        <time>2012-12-08T15:30:20Z</time>
      </trkpt>
      <trkpt lat="49.89605" lon="2.30392">
        <ele>3.7</ele>
        <time>2012-12-08T15:30:34Z</time>
      </trkpt>
      <trkpt lat="49.89609" lon="2.30381">
        <ele>4.8</ele>
        <time>2012-12-08T15:30:41Z</time>
      </trkpt>
      <trkpt lat="49.89622" lon="2.30389">
        <ele>6.8</ele>
        <time>2012-12-08T15:30:51Z</time>
      </trkpt>
      <trkpt lat="49.89633" lon="2.30401">
        <ele>9.4</ele>
        <time>2012-12-08T15:31:04Z</time>
      </trkpt>
      <trkpt lat="49.89646" lon="2.30411">
        <ele>16.9</ele>
        <time>2012-12-08T15:31:24Z</time>
      </trkpt>
      <trkpt lat="49.89653" lon="2.30415">
        <ele>18.3</ele>
        <time>2012-12-08T15:31:30Z</time>
      </trkpt>
      <trkpt lat="49.89641" lon="2.30432">
        <ele>16.4</ele>
        <time>2012-12-08T15:31:46Z</time>
      </trkpt>
      <trkpt lat="49.89636" lon="2.30454">
        <ele>19.8</ele>
        <time>2012-12-08T15:31:59Z</time>
      </trkpt>
      <trkpt lat="49.89627" lon="2.30475">
        <ele>21.8</ele>
        <time>2012-12-08T15:32:15Z</time>
      </trkpt>
      <trkpt lat="49.89622" lon="2.30496">
        <ele>21.3</ele>
        <time>2012-12-08T15:32:30Z</time>
      </trkpt>
      <trkpt lat="49.89616" lon="2.30519">
        <ele>17.9</ele>
        <time>2012-12-08T15:32:41Z</time>
      </trkpt>
      <trkpt lat="49.89609" lon="2.30562">
        <ele>16.1</ele>
        <time>2012-12-08T15:33:08Z</time>
      </trkpt>
      <trkpt lat="49.89609" lon="2.30562">
        <ele>16.1</ele>
        <time>2012-12-08T15:33:44Z</time>
      </trkpt>
      <trkpt lat="49.89605" lon="2.30582">
        <ele>18.4</ele>
        <time>2012-12-08T15:33:44Z</time>
      </trkpt>
      <trkpt lat="49.896" lon="2.30603">
        <ele>22.4</ele>
        <time>2012-12-08T15:34:00Z</time>
      </trkpt>
      <trkpt lat="49.89604" lon="2.30615">
        <ele>15.9</ele>
        <time>2012-12-08T15:34:20Z</time>
      </trkpt>
      <trkpt lat="49.896" lon="2.30639">
        <ele>18.4</ele>
        <time>2012-12-08T15:34:29Z</time>
      </trkpt>
      <trkpt lat="49.89598" lon="2.3066">
        <ele>21.9</ele>
        <time>2012-12-08T15:34:43Z</time>
      </trkpt>
      <trkpt lat="49.89598" lon="2.30682">
        <ele>20.3</ele>
        <time>2012-12-08T15:34:55Z</time>
      </trkpt>
      <trkpt lat="49.89596" lon="2.30703">
        <ele>14.8</ele>
        <time>2012-12-08T15:35:26Z</time>
      </trkpt>
      <trkpt lat="49.89597" lon="2.30725">
        <ele>19.7</ele>
        <time>2012-12-08T15:35:38Z</time>
      </trkpt>
      <trkpt lat="49.89603" lon="2.30748">
        <ele>19.4</ele>
        <time>2012-12-08T15:35:56Z</time>
      </trkpt>
      <trkpt lat="49.89605" lon="2.30769">
        <ele>20.1</ele>
        <time>2012-12-08T15:36:09Z</time>
      </trkpt>
      <trkpt lat="49.89605" lon="2.30795">
        <ele>20.2</ele>
        <time>2012-12-08T15:36:33Z</time>
      </trkpt>
      <trkpt lat="49.89598" lon="2.30838">
        <ele>24.3</ele>
        <time>2012-12-08T15:36:59Z</time>
      </trkpt>
      <trkpt lat="49.89598" lon="2.30838">
        <ele>24.3</ele>
        <time>2012-12-08T15:37:44Z</time>
      </trkpt>
      <trkpt lat="49.89598" lon="2.30868">
        <ele>29</ele>
        <time>2012-12-08T15:37:44Z</time>
      </trkpt>
      <trkpt lat="49.89581" lon="2.30897">
        <ele>24.3</ele>
        <time>2012-12-08T15:38:25Z</time>
      </trkpt>
      <trkpt lat="49.89581" lon="2.30897">
        <ele>24.3</ele>
        <time>2012-12-08T15:39:12Z</time>
      </trkpt>
      <trkpt lat="49.89571" lon="2.30906">
        <ele>18.7</ele>
        <time>2012-12-08T15:39:12Z</time>
      </trkpt>
      <trkpt lat="49.89561" lon="2.30925">
        <ele>19.4</ele>
        <time>2012-12-08T15:39:28Z</time>
      </trkpt>
      <trkpt lat="49.89547" lon="2.30938">
        <ele>24.6</ele>
        <time>2012-12-08T15:39:40Z</time>
      </trkpt>
      <trkpt lat="49.89543" lon="2.30962">
        <ele>24.4</ele>
        <time>2012-12-08T15:40:04Z</time>
      </trkpt>
      <trkpt lat="49.8953" lon="2.30958">
        <ele>20.8</ele>
        <time>2012-12-08T15:40:20Z</time>
      </trkpt>
      <trkpt lat="49.89516" lon="2.30951">
        <ele>17.5</ele>
        <time>2012-12-08T15:40:33Z</time>
      </trkpt>
      <trkpt lat="49.89503" lon="2.30943">
        <ele>23.2</ele>
        <time>2012-12-08T15:40:48Z</time>
      </trkpt>
      <trkpt lat="49.8949" lon="2.30934">
        <ele>28.2</ele>
        <time>2012-12-08T15:41:00Z</time>
      </trkpt>
      <trkpt lat="49.89482" lon="2.30918">
        <ele>26.8</ele>
        <time>2012-12-08T15:41:11Z</time>
      </trkpt>
      <trkpt lat="49.89468" lon="2.30908">
        <ele>29</ele>
        <time>2012-12-08T15:41:24Z</time>
      </trkpt>
      <trkpt lat="49.89453" lon="2.30905">
        <ele>30.6</ele>
        <time>2012-12-08T15:41:31Z</time>
      </trkpt>
      <trkpt lat="49.89439" lon="2.30909">
        <ele>32.7</ele>
        <time>2012-12-08T15:41:40Z</time>
      </trkpt>
      <trkpt lat="49.89425" lon="2.30904">
        <ele>35</ele>
        <time>2012-12-08T15:41:52Z</time>
      </trkpt>
      <trkpt lat="49.89416" lon="2.30873">
        <ele>24.6</ele>
        <time>2012-12-08T15:42:05Z</time>
      </trkpt>
      <trkpt lat="49.89416" lon="2.30873">
        <ele>24.6</ele>
        <time>2012-12-08T15:45:30Z</time>
      </trkpt>
      <trkpt lat="49.8941" lon="2.30856">
        <ele>17.1</ele>
        <time>2012-12-08T15:45:32Z</time>
      </trkpt>
      <trkpt lat="49.89397" lon="2.30845">
        <ele>19.1</ele>
        <time>2012-12-08T15:45:43Z</time>
      </trkpt>
      <trkpt lat="49.89384" lon="2.30834">
        <ele>18.8</ele>
        <time>2012-12-08T15:45:56Z</time>
      </trkpt>
      <trkpt lat="49.89371" lon="2.30825">
        <ele>18.1</ele>
        <time>2012-12-08T15:46:09Z</time>
      </trkpt>
      <trkpt lat="49.89356" lon="2.30813">
        <ele>15.5</ele>
        <time>2012-12-08T15:46:22Z</time>
      </trkpt>
      <trkpt lat="49.89344" lon="2.30805">
        <ele>15.9</ele>
        <time>2012-12-08T15:46:30Z</time>
      </trkpt>
      <trkpt lat="49.8933" lon="2.30804">
        <ele>19.9</ele>
        <time>2012-12-08T15:46:38Z</time>
      </trkpt>
      <trkpt lat="49.89316" lon="2.30801">
        <ele>25.4</ele>
        <time>2012-12-08T15:46:49Z</time>
      </trkpt>
      <trkpt lat="49.89304" lon="2.3079">
        <ele>26.8</ele>
        <time>2012-12-08T15:47:01Z</time>
      </trkpt>
      <trkpt lat="49.89291" lon="2.30779">
        <ele>25.5</ele>
        <time>2012-12-08T15:47:14Z</time>
      </trkpt>
      <trkpt lat="49.8928" lon="2.30767">
        <ele>22.4</ele>
        <time>2012-12-08T15:47:23Z</time>
      </trkpt>
      <trkpt lat="49.89266" lon="2.30766">
        <ele>23.6</ele>
        <time>2012-12-08T15:47:32Z</time>
      </trkpt>
      <trkpt lat="49.89243" lon="2.30771">
        <ele>19.9</ele>
        <time>2012-12-08T15:47:50Z</time>
      </trkpt>
      <trkpt lat="49.89243" lon="2.30771">
        <ele>19.9</ele>
        <time>2012-12-08T15:49:32Z</time>
      </trkpt>
      <trkpt lat="49.89233" lon="2.3078">
        <ele>13.7</ele>
        <time>2012-12-08T15:49:34Z</time>
      </trkpt>
      <trkpt lat="49.89219" lon="2.30772">
        <ele>19</ele>
        <time>2012-12-08T15:49:40Z</time>
      </trkpt>
      <trkpt lat="49.89203" lon="2.3077">
        <ele>22.9</ele>
        <time>2012-12-08T15:49:47Z</time>
      </trkpt>
      <trkpt lat="49.89189" lon="2.30772">
        <ele>22.7</ele>
        <time>2012-12-08T15:49:56Z</time>
      </trkpt>
      <trkpt lat="49.89175" lon="2.30764">
        <ele>23.9</ele>
        <time>2012-12-08T15:50:07Z</time>
      </trkpt>
      <trkpt lat="49.89162" lon="2.30753">
        <ele>25.4</ele>
        <time>2012-12-08T15:50:17Z</time>
      </trkpt>
      <trkpt lat="49.8915" lon="2.30745">
        <ele>20.3</ele>
        <time>2012-12-08T15:50:31Z</time>
      </trkpt>
      <trkpt lat="49.89137" lon="2.30736">
        <ele>16.9</ele>
        <time>2012-12-08T15:50:43Z</time>
      </trkpt>
      <trkpt lat="49.89125" lon="2.30724">
        <ele>19.1</ele>
        <time>2012-12-08T15:51:08Z</time>
      </trkpt>
      <trkpt lat="49.89115" lon="2.30708">
        <ele>8.9</ele>
        <time>2012-12-08T15:51:18Z</time>
      </trkpt>
      <trkpt lat="49.89104" lon="2.30697">
        <ele>6.7</ele>
        <time>2012-12-08T15:51:29Z</time>
      </trkpt>
      <trkpt lat="49.89093" lon="2.30692">
        <ele>7.8</ele>
        <time>2012-12-08T15:51:33Z</time>
      </trkpt>
      <trkpt lat="49.89086" lon="2.30681">
        <ele>13.1</ele>
        <time>2012-12-08T15:51:47Z</time>
      </trkpt>
      <trkpt lat="49.89081" lon="2.30678">
        <ele>13.5</ele>
        <time>2012-12-08T15:51:48Z</time>
      </trkpt>
      <trkpt lat="49.89067" lon="2.30662">
        <ele>1.7</ele>
        <time>2012-12-08T15:52:02Z</time>
      </trkpt>
      <trkpt lat="49.89053" lon="2.30652">
        <ele>24.5</ele>
        <time>2012-12-08T15:52:16Z</time>
      </trkpt>
      <trkpt lat="49.89039" lon="2.30645">
        <ele>26.2</ele>
        <time>2012-12-08T15:52:21Z</time>
      </trkpt>
      <trkpt lat="49.89026" lon="2.30641">
        <ele>22</ele>
        <time>2012-12-08T15:52:34Z</time>
      </trkpt>
      <trkpt lat="49.89012" lon="2.30644">
        <ele>26.9</ele>
        <time>2012-12-08T15:52:46Z</time>
      </trkpt>
      <trkpt lat="49.89014" lon="2.3064">
        <ele>25.4</ele>
        <time>2012-12-08T15:52:51Z</time>
      </trkpt>
      <trkpt lat="49.89009" lon="2.30622">
        <ele>22.5</ele>
        <time>2012-12-08T15:53:00Z</time>
      </trkpt>
      <trkpt lat="49.88994" lon="2.30623">
        <ele>15.6</ele>
        <time>2012-12-08T15:53:16Z</time>
      </trkpt>
      <trkpt lat="49.88975" lon="2.3062">
        <ele>22.4</ele>
        <time>2012-12-08T15:53:32Z</time>
      </trkpt>
      <trkpt lat="49.88962" lon="2.30608">
        <ele>26.7</ele>
        <time>2012-12-08T15:53:38Z</time>
      </trkpt>
      <trkpt lat="49.88947" lon="2.306">
        <ele>30.8</ele>
        <time>2012-12-08T15:53:46Z</time>
      </trkpt>
      <trkpt lat="49.88934" lon="2.30594">
        <ele>33.6</ele>
        <time>2012-12-08T15:53:53Z</time>
      </trkpt>
      <trkpt lat="49.88927" lon="2.30577">
        <ele>35.8</ele>
        <time>2012-12-08T15:54:04Z</time>
      </trkpt>
      <trkpt lat="49.88929" lon="2.30568">
        <ele>30.5</ele>
        <time>2012-12-08T15:54:19Z</time>
      </trkpt>
      <trkpt lat="49.88915" lon="2.30562">
        <ele>25.5</ele>
        <time>2012-12-08T15:54:35Z</time>
      </trkpt>
      <trkpt lat="49.88901" lon="2.30553">
        <ele>28.3</ele>
        <time>2012-12-08T15:54:47Z</time>
      </trkpt>
      <trkpt lat="49.88888" lon="2.30539">
        <ele>29.2</ele>
        <time>2012-12-08T15:55:02Z</time>
      </trkpt>
      <trkpt lat="49.88872" lon="2.30524">
        <ele>22</ele>
        <time>2012-12-08T15:55:15Z</time>
      </trkpt>
      <trkpt lat="49.8886" lon="2.30508">
        <ele>21</ele>
        <time>2012-12-08T15:55:31Z</time>
      </trkpt>
      <trkpt lat="49.88846" lon="2.30464">
        <ele>26.9</ele>
        <time>2012-12-08T15:56:01Z</time>
      </trkpt>
      <trkpt lat="49.88846" lon="2.30464">
        <ele>26.9</ele>
        <time>2012-12-08T16:07:36Z</time>
      </trkpt>
      <trkpt lat="49.88844" lon="2.30441">
        <ele>32.4</ele>
        <time>2012-12-08T16:07:44Z</time>
      </trkpt>
      <trkpt lat="49.88842" lon="2.3042">
        <ele>40.6</ele>
        <time>2012-12-08T16:08:01Z</time>
      </trkpt>
      <trkpt lat="49.88843" lon="2.30397">
        <ele>40.3</ele>
        <time>2012-12-08T16:08:12Z</time>
      </trkpt>
      <trkpt lat="49.88843" lon="2.30375">
        <ele>39.3</ele>
        <time>2012-12-08T16:08:24Z</time>
      </trkpt>
      <trkpt lat="49.88843" lon="2.30354">
        <ele>31.5</ele>
        <time>2012-12-08T16:08:35Z</time>
      </trkpt>
      <trkpt lat="49.88845" lon="2.30328">
        <ele>28.7</ele>
        <time>2012-12-08T16:08:48Z</time>
      </trkpt>
      <trkpt lat="49.88845" lon="2.30306">
        <ele>34.4</ele>
        <time>2012-12-08T16:09:11Z</time>
      </trkpt>
      <trkpt lat="49.88845" lon="2.30282">
        <ele>35.3</ele>
        <time>2012-12-08T16:09:24Z</time>
      </trkpt>
      <trkpt lat="49.88843" lon="2.30261">
        <ele>38.1</ele>
        <time>2012-12-08T16:09:32Z</time>
      </trkpt>
      <trkpt lat="49.88841" lon="2.30236">
        <ele>42.1</ele>
        <time>2012-12-08T16:09:44Z</time>
      </trkpt>
      <trkpt lat="49.88843" lon="2.30215">
        <ele>38.2</ele>
        <time>2012-12-08T16:09:52Z</time>
      </trkpt>
      <trkpt lat="49.88848" lon="2.30194">
        <ele>35.6</ele>
        <time>2012-12-08T16:10:05Z</time>
      </trkpt>
      <trkpt lat="49.8885" lon="2.30173">
        <ele>36.7</ele>
        <time>2012-12-08T16:10:22Z</time>
      </trkpt>
      <trkpt lat="49.8885" lon="2.30152">
        <ele>39.1</ele>
        <time>2012-12-08T16:10:34Z</time>
      </trkpt>
      <trkpt lat="49.88853" lon="2.30129">
        <ele>26.6</ele>
        <time>2012-12-08T16:10:48Z</time>
      </trkpt>
      <trkpt lat="49.88854" lon="2.30108">
        <ele>15.6</ele>
        <time>2012-12-08T16:11:00Z</time>
      </trkpt>
      <trkpt lat="49.88856" lon="2.30085">
        <ele>13.6</ele>
        <time>2012-12-08T16:11:12Z</time>
      </trkpt>
      <trkpt lat="49.88855" lon="2.30061">
        <ele>21.4</ele>
        <time>2012-12-08T16:11:28Z</time>
      </trkpt>
      <trkpt lat="49.88857" lon="2.3004">
        <ele>26.7</ele>
        <time>2012-12-08T16:11:38Z</time>
      </trkpt>
      <trkpt lat="49.8886" lon="2.30016">
        <ele>38</ele>
        <time>2012-12-08T16:12:11Z</time>
      </trkpt>
      <trkpt lat="49.88857" lon="2.29992">
        <ele>34.8</ele>
        <time>2012-12-08T16:12:21Z</time>
      </trkpt>
      <trkpt lat="49.88861" lon="2.2997">
        <ele>36.3</ele>
        <time>2012-12-08T16:12:40Z</time>
      </trkpt>
      <trkpt lat="49.88862" lon="2.29947">
        <ele>30.7</ele>
        <time>2012-12-08T16:12:52Z</time>
      </trkpt>
      <trkpt lat="49.88865" lon="2.29919">
        <ele>24.1</ele>
        <time>2012-12-08T16:13:03Z</time>
      </trkpt>
      <trkpt lat="49.88864" lon="2.29897">
        <ele>24.2</ele>
        <time>2012-12-08T16:13:17Z</time>
      </trkpt>
      <trkpt lat="49.88863" lon="2.29875">
        <ele>20.7</ele>
        <time>2012-12-08T16:13:26Z</time>
      </trkpt>
      <trkpt lat="49.88863" lon="2.29854">
        <ele>19.2</ele>
        <time>2012-12-08T16:13:36Z</time>
      </trkpt>
      <trkpt lat="49.88863" lon="2.29831">
        <ele>17.6</ele>
        <time>2012-12-08T16:13:50Z</time>
      </trkpt>
      <trkpt lat="49.88862" lon="2.29806">
        <ele>19.5</ele>
        <time>2012-12-08T16:14:06Z</time>
      </trkpt>
      <trkpt lat="49.88867" lon="2.29779">
        <ele>18</ele>
        <time>2012-12-08T16:14:16Z</time>
      </trkpt>
      <trkpt lat="49.88869" lon="2.29754">
        <ele>20.7</ele>
        <time>2012-12-08T16:14:24Z</time>
      </trkpt>
      <trkpt lat="49.88864" lon="2.29731">
        <ele>24.9</ele>
        <time>2012-12-08T16:14:32Z</time>
      </trkpt>
      <trkpt lat="49.88866" lon="2.29709">
        <ele>29.4</ele>
        <time>2012-12-08T16:14:39Z</time>
      </trkpt>
      <trkpt lat="49.88866" lon="2.29686">
        <ele>34.6</ele>
        <time>2012-12-08T16:14:47Z</time>
      </trkpt>
      <trkpt lat="49.88852" lon="2.29682">
        <ele>36.7</ele>
        <time>2012-12-08T16:14:55Z</time>
      </trkpt>
      <trkpt lat="49.88837" lon="2.29693">
        <ele>35.1</ele>
        <time>2012-12-08T16:15:09Z</time>
      </trkpt>
      <trkpt lat="49.88824" lon="2.29701">
        <ele>34.1</ele>
        <time>2012-12-08T16:15:18Z</time>
      </trkpt>
      <trkpt lat="49.8881" lon="2.297">
        <ele>36.6</ele>
        <time>2012-12-08T16:15:28Z</time>
      </trkpt>
      <trkpt lat="49.88794" lon="2.29698">
        <ele>32</ele>
        <time>2012-12-08T16:15:44Z</time>
      </trkpt>
      <trkpt lat="49.88779" lon="2.29693">
        <ele>35.8</ele>
        <time>2012-12-08T16:15:52Z</time>
      </trkpt>
      <trkpt lat="49.88769" lon="2.29696">
        <ele>37.8</ele>
        <time>2012-12-08T16:15:59Z</time>
      </trkpt>
      <trkpt lat="49.88756" lon="2.29692">
        <ele>42.3</ele>
        <time>2012-12-08T16:16:14Z</time>
      </trkpt>
      <trkpt lat="49.88742" lon="2.29679">
        <ele>46.5</ele>
        <time>2012-12-08T16:16:29Z</time>
      </trkpt>
      <trkpt lat="49.88728" lon="2.29675">
        <ele>48.6</ele>
        <time>2012-12-08T16:16:36Z</time>
      </trkpt>
      <trkpt lat="49.88715" lon="2.29669">
        <ele>60.4</ele>
        <time>2012-12-08T16:16:45Z</time>
      </trkpt>
      <trkpt lat="49.88702" lon="2.29662">
        <ele>60.8</ele>
        <time>2012-12-08T16:16:56Z</time>
      </trkpt>
      <trkpt lat="49.88694" lon="2.2966">
        <ele>59.3</ele>
        <time>2012-12-08T16:17:02Z</time>
      </trkpt>
      <trkpt lat="49.88684" lon="2.29645">
        <ele>62.8</ele>
        <time>2012-12-08T16:17:14Z</time>
      </trkpt>
      <trkpt lat="49.88674" lon="2.2964">
        <ele>61.1</ele>
        <time>2012-12-08T16:17:20Z</time>
      </trkpt>
      <trkpt lat="49.88675" lon="2.29634">
        <ele>60.4</ele>
        <time>2012-12-08T16:17:25Z</time>
      </trkpt>
      <trkpt lat="49.88662" lon="2.29622">
        <ele>59.3</ele>
        <time>2012-12-08T16:17:33Z</time>
      </trkpt>
      <trkpt lat="49.88652" lon="2.29613">
        <ele>56.6</ele>
        <time>2012-12-08T16:17:45Z</time>
      </trkpt>
      <trkpt lat="49.88638" lon="2.29611">
        <ele>53.8</ele>
        <time>2012-12-08T16:17:51Z</time>
      </trkpt>
      <trkpt lat="49.88624" lon="2.29607">
        <ele>59.7</ele>
        <time>2012-12-08T16:17:58Z</time>
      </trkpt>
      <trkpt lat="49.88611" lon="2.296">
        <ele>60.1</ele>
        <time>2012-12-08T16:18:12Z</time>
      </trkpt>
      <trkpt lat="49.88598" lon="2.29595">
        <ele>63.5</ele>
        <time>2012-12-08T16:18:20Z</time>
      </trkpt>
      <trkpt lat="49.88584" lon="2.2959">
        <ele>66.4</ele>
        <time>2012-12-08T16:18:27Z</time>
      </trkpt>
      <trkpt lat="49.8857" lon="2.29581">
        <ele>69.8</ele>
        <time>2012-12-08T16:18:35Z</time>
      </trkpt>
      <trkpt lat="49.88557" lon="2.29572">
        <ele>62.9</ele>
        <time>2012-12-08T16:18:46Z</time>
      </trkpt>
      <trkpt lat="49.88544" lon="2.29563">
        <ele>60.7</ele>
        <time>2012-12-08T16:18:57Z</time>
      </trkpt>
      <trkpt lat="49.88531" lon="2.29558">
        <ele>59.7</ele>
        <time>2012-12-08T16:19:09Z</time>
      </trkpt>
      <trkpt lat="49.88519" lon="2.29548">
        <ele>59</ele>
        <time>2012-12-08T16:19:24Z</time>
      </trkpt>
      <trkpt lat="49.88506" lon="2.29537">
        <ele>63.1</ele>
        <time>2012-12-08T16:19:38Z</time>
      </trkpt>
      <trkpt lat="49.88491" lon="2.2953">
        <ele>59.1</ele>
        <time>2012-12-08T16:19:44Z</time>
      </trkpt>
      <trkpt lat="49.88477" lon="2.29519">
        <ele>62.1</ele>
        <time>2012-12-08T16:19:54Z</time>
      </trkpt>
      <trkpt lat="49.88463" lon="2.29515">
        <ele>59.1</ele>
        <time>2012-12-08T16:20:02Z</time>
      </trkpt>
      <trkpt lat="49.8845" lon="2.29507">
        <ele>63.9</ele>
        <time>2012-12-08T16:20:14Z</time>
      </trkpt>
      <trkpt lat="49.88436" lon="2.29505">
        <ele>64.1</ele>
        <time>2012-12-08T16:20:23Z</time>
      </trkpt>
      <trkpt lat="49.88422" lon="2.29498">
        <ele>62</ele>
        <time>2012-12-08T16:20:34Z</time>
      </trkpt>
      <trkpt lat="49.88409" lon="2.2949">
        <ele>66</ele>
        <time>2012-12-08T16:20:45Z</time>
      </trkpt>
      <trkpt lat="49.88394" lon="2.29479">
        <ele>65.5</ele>
        <time>2012-12-08T16:20:56Z</time>
      </trkpt>
      <trkpt lat="49.88381" lon="2.29466">
        <ele>60.2</ele>
        <time>2012-12-08T16:21:06Z</time>
      </trkpt>
      <trkpt lat="49.88373" lon="2.29457">
        <ele>56.8</ele>
        <time>2012-12-08T16:21:14Z</time>
      </trkpt>
      <trkpt lat="49.88367" lon="2.2945">
        <ele>59</ele>
        <time>2012-12-08T16:21:22Z</time>
      </trkpt>
      <trkpt lat="49.88353" lon="2.29443">
        <ele>61.6</ele>
        <time>2012-12-08T16:21:31Z</time>
      </trkpt>
      <trkpt lat="49.88341" lon="2.29435">
        <ele>65.4</ele>
        <time>2012-12-08T16:21:41Z</time>
      </trkpt>
      <trkpt lat="49.88328" lon="2.29425">
        <ele>62.2</ele>
        <time>2012-12-08T16:21:51Z</time>
      </trkpt>
      <trkpt lat="49.88315" lon="2.2942">
        <ele>70</ele>
        <time>2012-12-08T16:21:59Z</time>
      </trkpt>
      <trkpt lat="49.88298" lon="2.29412">
        <ele>65.8</ele>
        <time>2012-12-08T16:22:10Z</time>
      </trkpt>
      <trkpt lat="49.88284" lon="2.29407">
        <ele>70.1</ele>
        <time>2012-12-08T16:22:19Z</time>
      </trkpt>
      <trkpt lat="49.8827" lon="2.29396">
        <ele>68.7</ele>
        <time>2012-12-08T16:22:29Z</time>
      </trkpt>
      <trkpt lat="49.88256" lon="2.29391">
        <ele>67.3</ele>
        <time>2012-12-08T16:22:41Z</time>
      </trkpt>
      <trkpt lat="49.88242" lon="2.29383">
        <ele>73.3</ele>
        <time>2012-12-08T16:22:52Z</time>
      </trkpt>
      <trkpt lat="49.88229" lon="2.29373">
        <ele>67.3</ele>
        <time>2012-12-08T16:23:04Z</time>
      </trkpt>
      <trkpt lat="49.88215" lon="2.29365">
        <ele>70.2</ele>
        <time>2012-12-08T16:23:17Z</time>
      </trkpt>
      <trkpt lat="49.88202" lon="2.29359">
        <ele>68.4</ele>
        <time>2012-12-08T16:23:25Z</time>
      </trkpt>
      <trkpt lat="49.88188" lon="2.2935">
        <ele>69.4</ele>
        <time>2012-12-08T16:23:36Z</time>
      </trkpt>
      <trkpt lat="49.88174" lon="2.29345">
        <ele>72.2</ele>
        <time>2012-12-08T16:23:44Z</time>
      </trkpt>
      <trkpt lat="49.88159" lon="2.29336">
        <ele>68.3</ele>
        <time>2012-12-08T16:23:57Z</time>
      </trkpt>
      <trkpt lat="49.88145" lon="2.29325">
        <ele>54.3</ele>
        <time>2012-12-08T16:24:09Z</time>
      </trkpt>
      <trkpt lat="49.88129" lon="2.29312">
        <ele>55.9</ele>
        <time>2012-12-08T16:24:19Z</time>
      </trkpt>
      <trkpt lat="49.88116" lon="2.29302">
        <ele>59.7</ele>
        <time>2012-12-08T16:24:32Z</time>
      </trkpt>
      <trkpt lat="49.88103" lon="2.29292">
        <ele>65</ele>
        <time>2012-12-08T16:24:41Z</time>
      </trkpt>
      <trkpt lat="49.88091" lon="2.29283">
        <ele>64.2</ele>
        <time>2012-12-08T16:24:52Z</time>
      </trkpt>
      <trkpt lat="49.88078" lon="2.29275">
        <ele>59.6</ele>
        <time>2012-12-08T16:25:01Z</time>
      </trkpt>
      <trkpt lat="49.88064" lon="2.29269">
        <ele>62.3</ele>
        <time>2012-12-08T16:25:12Z</time>
      </trkpt>
      <trkpt lat="49.8805" lon="2.29265">
        <ele>66.9</ele>
        <time>2012-12-08T16:25:24Z</time>
      </trkpt>
      <trkpt lat="49.8804" lon="2.2926">
        <ele>69.9</ele>
        <time>2012-12-08T16:25:32Z</time>
      </trkpt>
      <trkpt lat="49.88027" lon="2.2925">
        <ele>64.9</ele>
        <time>2012-12-08T16:25:43Z</time>
      </trkpt>
      <trkpt lat="49.88013" lon="2.29243">
        <ele>64.6</ele>
        <time>2012-12-08T16:25:52Z</time>
      </trkpt>
      <trkpt lat="49.88" lon="2.29233">
        <ele>64.1</ele>
        <time>2012-12-08T16:26:04Z</time>
      </trkpt>
      <trkpt lat="49.87984" lon="2.29229">
        <ele>63.8</ele>
        <time>2012-12-08T16:26:11Z</time>
      </trkpt>
      <trkpt lat="49.87969" lon="2.29219">
        <ele>61</ele>
        <time>2012-12-08T16:26:23Z</time>
      </trkpt>
      <trkpt lat="49.87969" lon="2.29197">
        <ele>58.3</ele>
        <time>2012-12-08T16:26:37Z</time>
      </trkpt>
      <trkpt lat="49.87954" lon="2.29186">
        <ele>64.5</ele>
        <time>2012-12-08T16:26:52Z</time>
      </trkpt>
      <trkpt lat="49.87948" lon="2.29188">
        <ele>69.4</ele>
        <time>2012-12-08T16:27:06Z</time>
      </trkpt>
      <trkpt lat="49.87944" lon="2.29177">
        <ele>63.2</ele>
        <time>2012-12-08T16:27:19Z</time>
      </trkpt>
      <trkpt lat="49.8795" lon="2.29158">
        <ele>54.5</ele>
        <time>2012-12-08T16:27:28Z</time>
      </trkpt>
      <trkpt lat="49.87953" lon="2.29141">
        <ele>51.4</ele>
        <time>2012-12-08T16:27:38Z</time>
      </trkpt>
      <trkpt lat="49.87964" lon="2.29133">
        <ele>52.2</ele>
        <time>2012-12-08T16:27:43Z</time>
      </trkpt>
      <trkpt lat="49.87966" lon="2.29129">
        <ele>53.1</ele>
        <time>2012-12-08T16:27:45Z</time>
      </trkpt>
      <trkpt lat="49.87958" lon="2.29091">
        <ele>61.5</ele>
        <time>2012-12-08T16:27:56Z</time>
      </trkpt>
      <trkpt lat="49.87958" lon="2.29091">
        <ele>61.5</ele>
        <time>2012-12-08T16:29:14Z</time>
      </trkpt>
      <trkpt lat="49.87954" lon="2.29069">
        <ele>67.7</ele>
        <time>2012-12-08T16:29:15Z</time>
      </trkpt>
      <trkpt lat="49.87938" lon="2.2907">
        <ele>67</ele>
        <time>2012-12-08T16:29:18Z</time>
      </trkpt>
      <trkpt lat="49.87642" lon="2.28962">
        <ele>62</ele>
        <time>2012-12-08T16:29:54Z</time>
      </trkpt>
      <trkpt lat="49.87642" lon="2.28962">
        <ele>62</ele>
        <time>2012-12-08T16:30:27Z</time>
      </trkpt>
      <trkpt lat="49.8742" lon="2.28831">
        <ele>60.9</ele>
        <time>2012-12-08T16:31:32Z</time>
      </trkpt>
      <trkpt lat="49.87426" lon="2.28809">
        <ele>61.1</ele>
        <time>2012-12-08T16:31:57Z</time>
      </trkpt>
      <trkpt lat="49.87431" lon="2.2879">
        <ele>60.5</ele>
        <time>2012-12-08T16:32:04Z</time>
      </trkpt>
      <trkpt lat="49.87418" lon="2.28777">
        <ele>60.2</ele>
        <time>2012-12-08T16:32:08Z</time>
      </trkpt>
      <trkpt lat="49.87404" lon="2.28769">
        <ele>59.9</ele>
        <time>2012-12-08T16:32:11Z</time>
      </trkpt>
      <trkpt lat="49.87393" lon="2.2876">
        <ele>59.7</ele>
        <time>2012-12-08T16:32:14Z</time>
      </trkpt>
      <trkpt lat="49.8739" lon="2.28743">
        <ele>59.4</ele>
        <time>2012-12-08T16:32:17Z</time>
      </trkpt>
      <trkpt lat="49.87396" lon="2.28732">
        <ele>59</ele>
        <time>2012-12-08T16:32:22Z</time>
      </trkpt>
      <trkpt lat="49.87409" lon="2.2874">
        <ele>58.6</ele>
        <time>2012-12-08T16:32:26Z</time>
      </trkpt>
      <trkpt lat="49.87426" lon="2.28744">
        <ele>63.6</ele>
        <time>2012-12-08T16:32:35Z</time>
      </trkpt>
      <trkpt lat="49.87426" lon="2.28744">
        <ele>63.6</ele>
        <time>2012-12-08T16:34:10Z</time>
      </trkpt>
      <trkpt lat="49.87429" lon="2.28736">
        <ele>65.8</ele>
        <time>2012-12-08T16:34:10Z</time>
      </trkpt>
      <trkpt lat="49.87417" lon="2.28722">
        <ele>66.3</ele>
        <time>2012-12-08T16:34:16Z</time>
      </trkpt>
      <trkpt lat="49.87411" lon="2.28717">
        <ele>66.5</ele>
        <time>2012-12-08T16:34:19Z</time>
      </trkpt>
      <trkpt lat="49.87397" lon="2.28725">
        <ele>67.5</ele>
        <time>2012-12-08T16:34:31Z</time>
      </trkpt>
      <trkpt lat="49.87393" lon="2.28751">
        <ele>67.7</ele>
        <time>2012-12-08T16:34:43Z</time>
      </trkpt>
      <trkpt lat="49.87385" lon="2.28766">
        <ele>63.1</ele>
        <time>2012-12-08T16:34:58Z</time>
      </trkpt>
    </trkseg>
  </trk>
</gpx>